Time;durP1;ratioP1;P1;durP2;ratioP2;P2;SDS_P1;SDS_P2;PMS_P1;PMS_P2;Temp;Humidity;BMP_temperature;BMP_pressure;BME280_temperature;BME280_humidity;BME280_pressure;Samples;Min_cycle;Max_cycle;Signal;HPM_P1;HPM_P2
2022/05/03 00:00:59;;;;;;;8.07;7.27;;;;;;;15.14;57.59;98581.78;7032833;28;20688;-81
2022/05/03 00:04:24;;;;;;;7.77;6.97;;;;;;;15.57;56.15;98579.44;7032507;28;20214;-81
2022/05/03 00:07:48;;;;;;;8.10;7.37;;;;;;;15.69;55.57;98558.47;7031810;28;20203;-81
2022/05/03 00:11:14;;;;;;;8.10;6.87;;;;;;;15.93;54.47;98568.16;7032553;28;20225;-81
2022/05/03 00:14:38;;;;;;;13.10;7.90;;;;;;;15.30;56.33;98574.78;7029694;28;20677;-81
2022/05/03 00:18:03;;;;;;;10.03;7.70;;;;;;;15.35;56.15;98547.75;7006435;28;20250;-81
2022/05/03 00:21:25;;;;;;;8.30;7.60;;;;;;;15.13;57.38;98563.00;7004452;28;20230;-81
2022/05/03 00:24:46;;;;;;;8.30;7.50;;;;;;;15.13;57.62;98571.16;7004757;28;20676;-81
2022/05/03 00:28:08;;;;;;;8.30;7.60;;;;;;;15.46;57.22;98560.47;7004037;28;20241;-80
2022/05/03 00:31:30;;;;;;;9.07;7.83;;;;;;;15.12;57.74;98564.09;7004260;28;20221;-81
2022/05/03 00:34:54;;;;;;;7.87;7.17;;;;;;;15.43;57.50;98569.94;7004119;28;20803;-80
2022/05/03 00:38:15;;;;;;;8.17;7.33;;;;;;;15.56;57.46;98556.06;7003865;28;20210;-80
2022/05/03 00:41:42;;;;;;;7.87;7.03;;;;;;;15.54;56.85;98543.78;7004623;28;20233;-81
2022/05/03 00:45:05;;;;;;;8.17;7.53;;;;;;;15.30;57.51;98542.19;7004883;28;20232;-81
2022/05/03 00:48:34;;;;;;;8.60;7.80;;;;;;;15.03;58.22;98528.34;7004590;28;20287;-81
2022/05/03 00:52:02;;;;;;;9.20;8.27;;;;;;;15.34;58.08;98565.13;7004355;28;20223;-80
2022/05/03 00:55:32;;;;;;;8.90;7.97;;;;;;;15.34;58.14;98563.22;7003255;28;20330;-81
2022/05/03 00:59:01;;;;;;;9.40;7.90;;;;;;;15.83;57.22;98557.13;7003980;28;20236;-81
2022/05/03 01:02:29;;;;;;;8.63;7.83;;;;;;;15.79;56.83;98553.22;7003806;28;20240;-81
2022/05/03 01:06:03;;;;;;;8.40;7.37;;;;;;;15.47;56.12;98552.09;7003682;28;20294;-80
2022/05/03 01:09:35;;;;;;;8.73;7.83;;;;;;;15.55;56.73;98559.84;7004458;28;20287;-81
2022/05/03 01:13:03;;;;;;;8.27;7.57;;;;;;;15.50;56.79;98564.34;7004244;28;20306;-81
2022/05/03 01:16:28;;;;;;;8.53;7.83;;;;;;;15.34;57.32;98537.97;7004198;28;20212;-80
2022/05/03 01:19:59;;;;;;;8.93;8.07;;;;;;;15.12;57.85;98570.34;7004560;28;20362;-80
2022/05/03 01:23:52;;;;;;;9.97;8.97;;;;;;;14.98;59.17;98568.94;7003994;28;20235;-81
2022/05/03 01:27:40;;;;;;;8.70;7.73;;;;;;;15.51;57.61;98564.09;7001526;28;20261;-81
2022/05/03 01:31:06;;;;;;;9.00;8.10;;;;;;;15.37;57.29;98575.50;7007363;28;20246;-81
2022/05/03 01:34:29;;;;;;;8.90;8.00;;;;;;;15.50;56.36;98567.06;7007469;28;20198;-81
2022/05/03 01:38:04;;;;;;;8.63;7.83;;;;;;;15.37;56.28;98549.16;7007030;28;20254;-81
2022/05/03 01:41:29;;;;;;;9.63;8.53;;;;;;;15.16;57.38;98559.84;7007854;28;20235;-81
2022/05/03 01:44:54;;;;;;;8.87;7.97;;;;;;;15.22;57.31;98558.88;7007103;28;20729;-81
2022/05/03 01:50:18;;;;;;;8.77;7.87;;;;;;;15.02;57.32;98559.28;7007352;28;20563;-81
2022/05/03 01:52:31;;;;;;;9.03;8.23;;;;;;;15.13;57.01;98565.72;7006758;28;20229;-81
2022/05/03 01:56:15;;;;;;;9.50;8.60;;;;;;;14.23;59.48;98559.03;7005530;28;20730;-81
2022/05/03 01:59:51;;;;;;;9.10;8.20;;;;;;;14.77;58.33;98550.59;7006422;28;20240;-81
2022/05/03 02:03:25;;;;;;;8.80;7.90;;;;;;;14.93;57.55;98552.53;7006235;28;20226;-81
2022/05/03 02:06:54;;;;;;;9.03;8.13;;;;;;;14.98;57.42;98538.28;7005436;28;20224;-81
2022/05/03 02:10:19;;;;;;;9.07;8.27;;;;;;;14.72;57.17;98555.06;7006775;28;20190;-81
2022/05/03 02:17:51;;;;;;;9.57;8.57;;;;;;;13.88;59.10;98514.78;7008802;28;20216;-81
2022/05/03 02:21:17;;;;;;;10.53;9.50;;;;;;;13.30;62.28;98557.09;7005299;28;20232;-81
2022/05/03 02:24:45;;;;;;;9.60;8.70;;;;;;;13.98;60.46;98549.44;7005622;28;20195;-81
2022/05/03 02:28:15;;;;;;;10.00;9.00;;;;;;;14.55;58.87;98549.53;7030476;28;20193;-80
2022/05/03 02:31:43;;;;;;;9.30;8.33;;;;;;;14.52;57.87;98520.13;7030231;28;20248;-81
2022/05/03 02:35:07;;;;;;;9.40;8.50;;;;;;;14.59;57.70;98553.44;7006813;28;20190;-81
2022/05/03 02:38:37;;;;;;;11.97;8.53;;;;;;;13.84;58.22;98548.81;7005630;28;20269;-81
2022/05/03 02:42:02;;;;;;;9.97;8.97;;;;;;;13.82;58.96;98550.94;7006546;28;20225;-80
2022/05/03 02:45:24;;;;;;;10.70;9.13;;;;;;;14.17;58.56;98556.44;7006795;28;20300;-81
2022/05/03 02:48:54;;;;;;;10.30;8.27;;;;;;;14.28;57.58;98563.78;7005934;28;20273;-81
2022/05/03 02:52:24;;;;;;;9.10;8.20;;;;;;;13.84;57.55;98535.28;7006932;28;20236;-80
2022/05/03 02:55:51;;;;;;;9.33;8.47;;;;;;;13.42;58.61;98513.81;7005305;28;20243;-81
2022/05/03 02:59:18;;;;;;;9.63;8.83;;;;;;;13.38;58.49;98496.38;7006405;28;20213;-81
2022/05/03 03:02:43;;;;;;;9.53;8.70;;;;;;;13.78;58.98;98565.16;7005882;28;20221;-81
2022/05/03 03:06:05;;;;;;;10.67;9.57;;;;;;;13.59;59.15;98556.28;7005264;28;20269;-81
2022/05/03 03:09:35;;;;;;;10.30;9.20;;;;;;;13.90;58.77;98566.88;7006564;28;20231;-80
2022/05/03 03:13:03;;;;;;;11.33;9.43;;;;;;;13.65;59.45;98568.91;7007409;28;20229;-80
2022/05/03 03:16:31;;;;;;;11.30;9.33;;;;;;;13.45;59.60;98546.69;7006285;28;20241;-80
2022/05/03 03:20:13;;;;;;;14.07;10.30;;;;;;;13.39;59.88;98554.91;7005081;28;20250;-80
2022/05/03 03:23:36;;;;;;;10.03;9.13;;;;;;;13.46;59.79;98561.06;6999399;28;20234;-80
2022/05/03 03:27:00;;;;;;;10.90;9.93;;;;;;;13.03;60.96;98571.16;7004156;28;20335;-80
2022/05/03 03:30:23;;;;;;;10.83;9.83;;;;;;;13.46;59.31;98558.34;7004938;28;20212;-81
2022/05/03 03:33:45;;;;;;;10.60;9.13;;;;;;;13.66;59.02;98548.06;7010787;28;20277;-80
2022/05/03 03:37:07;;;;;;;10.27;8.90;;;;;;;13.65;58.75;98555.38;7009856;28;20257;-81
2022/05/03 03:40:29;;;;;;;10.23;8.27;;;;;;;13.55;58.10;98506.34;7005275;28;20209;-80
2022/05/03 03:43:52;;;;;;;11.30;10.13;;;;;;;13.93;58.06;98563.69;7004601;28;20280;-80
2022/05/03 03:47:15;;;;;;;10.03;9.13;;;;;;;13.64;56.82;98542.06;7004330;28;20202;-80
2022/05/03 03:50:39;;;;;;;9.83;8.83;;;;;;;13.83;57.05;98549.03;7003775;28;20214;-80
2022/05/03 03:54:01;;;;;;;9.93;9.00;;;;;;;13.42;56.65;98517.38;7003644;28;20598;-80
2022/05/03 03:57:24;;;;;;;11.80;9.77;;;;;;;13.21;58.46;98571.19;7004368;28;20550;-80
2022/05/03 04:00:46;;;;;;;9.93;9.03;;;;;;;13.33;58.94;98545.00;7005449;28;20320;-82
2022/05/03 04:04:11;;;;;;;9.10;8.30;;;;;;;13.50;58.03;98562.22;7003691;28;20207;-82
2022/05/03 04:07:33;;;;;;;9.60;8.70;;;;;;;13.03;58.22;98571.16;7002894;28;20740;-82
2022/05/03 04:10:56;;;;;;;11.27;10.17;;;;;;;12.42;59.28;98543.31;7003553;28;20221;-82
2022/05/03 04:14:17;;;;;;;10.50;9.50;;;;;;;12.94;58.86;98545.47;7003178;28;20692;-82
2022/05/03 04:17:39;;;;;;;9.80;8.80;;;;;;;13.11;58.29;98552.75;7005802;28;20226;-82
2022/05/03 04:21:02;;;;;;;10.70;9.70;;;;;;;12.90;58.77;98552.34;7003330;28;20730;-82
2022/05/03 04:24:23;;;;;;;12.47;11.07;;;;;;;12.27;61.88;98570.69;7003875;28;20206;-83
2022/05/03 04:27:45;;;;;;;12.03;10.80;;;;;;;12.89;60.96;98564.25;7003962;28;20201;-82
2022/05/03 04:31:07;;;;;;;11.23;10.13;;;;;;;13.01;60.15;98566.00;7008387;28;20830;-83
2022/05/03 04:34:29;;;;;;;11.17;10.07;;;;;;;13.35;59.37;98567.25;7025399;28;20228;-81
2022/05/03 04:37:51;;;;;;;12.20;11.00;;;;;;;12.79;58.13;98526.06;7027046;28;20268;-80
2022/05/03 04:41:13;;;;;;;11.23;10.13;;;;;;;12.98;59.32;98568.34;7026775;28;20221;-81
2022/05/03 04:44:35;;;;;;;11.83;10.07;;;;;;;12.68;60.21;98575.53;7026081;28;20603;-80
2022/05/03 04:47:56;;;;;;;12.67;11.47;;;;;;;12.94;60.22;98570.66;7005394;28;20205;-81
2022/05/03 04:55:02;;;;;;;11.23;10.20;;;;;;;13.43;59.45;98588.59;6983897;28;20204;-81
2022/05/03 04:58:23;;;;;;;10.93;9.80;;;;;;;13.42;57.99;98603.19;7033355;28;20307;-81
2022/05/03 05:01:45;;;;;;;11.60;10.50;;;;;;;13.58;58.21;98599.84;7027939;28;20706;-81
2022/05/03 05:05:07;;;;;;;11.47;10.30;;;;;;;13.54;57.34;98599.50;7030356;28;20205;-81
2022/05/03 05:08:29;;;;;;;10.63;9.57;;;;;;;13.73;58.45;98616.50;7037217;28;20198;-80
2022/05/03 05:11:52;;;;;;;11.07;9.97;;;;;;;13.70;57.43;98579.88;7026603;28;20253;-80
2022/05/03 05:15:14;;;;;;;10.50;9.57;;;;;;;14.28;57.27;98609.88;7011101;28;20689;-80
2022/05/03 05:18:36;;;;;;;11.30;10.27;;;;;;;14.53;56.78;98596.94;7013548;28;20250;-81
2022/05/03 05:21:58;;;;;;;12.13;11.03;;;;;;;14.47;58.38;98608.72;7039601;28;20230;-80
2022/05/03 05:25:21;;;;;;;12.43;11.23;;;;;;;15.16;57.01;98606.81;7039022;28;20228;-80
2022/05/03 05:28:44;;;;;;;13.37;12.00;;;;;;;15.46;56.73;98599.31;7035494;28;20573;-81
2022/05/03 05:32:06;;;;;;;11.50;10.37;;;;;;;15.92;55.64;98592.91;7038546;28;20275;-81
2022/05/03 05:35:27;;;;;;;12.10;11.00;;;;;;;15.59;54.86;98557.47;7038289;28;20214;-81
2022/05/03 05:38:49;;;;;;;11.80;10.60;;;;;;;15.82;55.56;98612.53;7037907;28;20223;-80
2022/05/03 05:42:11;;;;;;;13.70;10.13;;;;;;;15.58;56.12;98605.53;7038517;28;20225;-81
2022/05/03 05:45:34;;;;;;;11.40;10.37;;;;;;;15.94;55.48;98594.31;7018307;28;20659;-80
2022/05/03 05:48:56;;;;;;;11.50;10.30;;;;;;;16.42;54.45;98599.25;7020164;28;20269;-81
2022/05/03 05:55:56;;;;;;;10.43;9.23;;;;;;;16.79;53.04;98590.31;7015516;28;20209;-80
2022/05/03 05:59:18;;;;;;;10.03;9.03;;;;;;;17.34;52.18;98582.91;7006239;28;20261;-81
2022/05/03 06:02:41;;;;;;;10.30;9.40;;;;;;;17.67;50.82;98587.41;7005754;28;20229;-79
2022/05/03 06:06:03;;;;;;;10.47;9.47;;;;;;;17.99;51.38;98602.75;7024191;28;20276;-79
2022/05/03 06:09:24;;;;;;;11.30;10.20;;;;;;;19.09;48.35;98591.94;7028902;28;20553;-78
2022/05/03 06:12:47;;;;;;;10.87;9.87;;;;;;;19.20;47.82;98605.44;7032461;28;20232;-78
2022/05/03 06:16:09;;;;;;;10.10;9.10;;;;;;;20.10;45.71;98592.13;7015623;28;20283;-78
2022/05/03 06:19:31;;;;;;;10.03;9.07;;;;;;;20.38;44.72;98604.50;7012118;28;20198;-80
2022/05/03 06:22:53;;;;;;;9.37;8.33;;;;;;;20.47;44.39;98591.91;7005010;28;20308;-79
2022/05/03 06:26:15;;;;;;;10.07;9.07;;;;;;;20.83;43.91;98599.84;7022796;28;20278;-79
2022/05/03 06:29:36;;;;;;;9.30;8.40;;;;;;;21.13;43.08;98593.53;7031412;28;20205;-79
2022/05/03 06:32:58;;;;;;;10.80;8.53;;;;;;;21.20;42.87;98598.41;7032833;28;20716;-79
2022/05/03 06:36:21;;;;;;;9.43;8.37;;;;;;;20.96;42.72;98603.97;7029173;28;20220;-79
2022/05/03 06:39:42;;;;;;;8.53;7.77;;;;;;;21.47;42.32;98601.66;7032441;28;20214;-78
2022/05/03 06:43:04;;;;;;;8.70;7.90;;;;;;;21.43;41.12;98588.78;7032596;28;20363;-78
2022/05/03 06:46:26;;;;;;;8.93;8.13;;;;;;;21.36;41.76;98607.47;7031914;28;20213;-78
2022/05/03 06:49:47;;;;;;;8.07;7.37;;;;;;;21.93;40.76;98597.63;7032165;28;20209;-80
2022/05/03 06:53:10;;;;;;;8.47;7.63;;;;;;;21.84;40.60;98568.31;7032050;28;20716;-79
2022/05/03 06:56:35;;;;;;;8.40;7.60;;;;;;;22.35;39.75;98599.81;7031896;28;20283;-80
2022/05/03 07:00:00;;;;;;;9.33;7.50;;;;;;;22.27;40.16;98606.75;7042191;28;20205;-80
2022/05/03 07:03:21;;;;;;;8.10;7.30;;;;;;;21.67;40.01;98562.38;7060933;28;20227;-79
2022/05/03 07:06:43;;;;;;;8.10;7.33;;;;;;;22.51;40.47;98604.97;7017306;28;20214;-80
2022/05/03 07:10:07;;;;;;;9.90;6.93;;;;;;;23.00;38.47;98567.13;7032013;28;20371;-79
2022/05/03 07:13:28;;;;;;;8.27;7.53;;;;;;;22.40;39.73;98606.13;7032729;28;20228;-80
2022/05/03 07:16:50;;;;;;;8.27;7.53;;;;;;;22.30;40.68;98603.44;7011220;28;20227;-80
2022/05/03 07:23:52;;;;;;;8.20;7.50;;;;;;;21.64;41.34;98599.38;7003013;28;20182;-79
2022/05/03 07:27:15;;;;;;;7.30;6.60;;;;;;;22.82;40.26;98606.34;7003471;28;20206;-80
2022/05/03 07:30:37;;;;;;;7.37;6.73;;;;;;;23.78;37.71;98606.97;7002896;28;20245;-79
2022/05/03 07:33:58;;;;;;;6.83;6.23;;;;;;;24.08;37.21;98606.59;7004152;28;20304;-80
2022/05/03 07:37:20;;;;;;;7.40;6.70;;;;;;;23.50;37.99;98596.88;7006060;28;20234;-80
2022/05/03 07:40:41;;;;;;;7.30;6.60;;;;;;;23.71;36.52;98603.78;7014998;28;20214;-81
2022/05/03 07:44:05;;;;;;;6.93;6.30;;;;;;;22.17;40.77;98606.81;7019981;28;20299;-81
2022/05/03 07:47:26;;;;;;;6.00;5.50;;;;;;;23.57;38.74;98613.88;7023070;28;20265;-80
2022/05/03 07:50:48;;;;;;;7.17;6.57;;;;;;;23.37;37.39;98616.03;7017241;28;20232;-81
2022/05/03 07:54:11;;;;;;;6.07;5.57;;;;;;;22.54;40.40;98607.13;7003889;28;20201;-80
2022/05/03 07:57:33;;;;;;;7.10;6.47;;;;;;;21.98;40.68;98608.59;7010630;28;20232;-80
2022/05/03 08:00:56;;;;;;;6.43;5.83;;;;;;;21.95;41.08;98614.63;7004297;28;20240;-81
2022/05/03 08:04:17;;;;;;;5.77;5.27;;;;;;;24.23;36.93;98611.06;7021684;28;20213;-80
2022/05/03 08:07:39;;;;;;;5.73;4.93;;;;;;;24.27;37.41;98610.22;7031279;28;20285;-80
2022/05/03 08:11:01;;;;;;;5.23;4.77;;;;;;;24.98;35.41;98604.38;7032555;28;20231;-81
2022/05/03 08:14:22;;;;;;;4.70;4.30;;;;;;;25.26;34.40;98604.16;7033155;28;20240;-81
2022/05/03 08:17:45;;;;;;;5.33;4.83;;;;;;;24.74;35.54;98615.56;7028172;28;20265;-81
2022/05/03 08:21:07;;;;;;;7.00;5.20;;;;;;;24.16;36.92;98618.91;7025979;28;20249;-81
2022/05/03 08:24:28;;;;;;;5.73;5.20;;;;;;;23.93;37.70;98622.50;7032398;28;20209;-81
2022/05/03 08:27:50;;;;;;;5.57;5.07;;;;;;;23.90;37.97;98625.88;7031915;28;20200;-80
2022/05/03 08:31:12;;;;;;;5.00;4.60;;;;;;;24.14;36.82;98623.91;7027076;28;20222;-79
2022/05/03 08:34:34;;;;;;;13.47;5.30;;;;;;;23.98;37.40;98612.28;7007264;28;20225;-80
2022/05/03 08:45:14;;;;;;;5.03;4.40;;;;;;;24.79;36.03;98617.41;7008966;28;20182;-81
2022/05/03 08:48:36;;;;;;;5.23;4.83;;;;;;;24.65;35.32;98617.34;7009263;28;20712;-81
2022/05/03 08:52:03;;;;;;;4.97;4.47;;;;;;;24.91;34.54;98599.28;7011672;28;20303;-79
2022/05/03 08:55:25;;;;;;;4.90;4.50;;;;;;;24.73;35.09;98632.41;7025169;28;20203;-79
2022/05/03 08:58:47;;;;;;;4.60;4.20;;;;;;;25.07;34.59;98622.69;7023853;28;20232;-77
2022/05/03 09:02:09;;;;;;;6.30;4.70;;;;;;;24.71;34.55;98632.69;7007600;28;20227;-79
2022/05/03 09:05:31;;;;;;;4.07;3.70;;;;;;;25.01;34.65;98631.38;7006780;28;20245;-78
2022/05/03 09:08:54;;;;;;;4.60;4.20;;;;;;;25.13;34.34;98598.59;7030786;28;20215;-78
2022/05/03 09:12:23;;;;;;;4.27;3.97;;;;;;;25.77;33.86;98615.84;7012292;28;20263;-78
2022/05/03 09:15:47;;;;;;;4.63;4.07;;;;;;;24.48;34.46;98619.78;7006879;28;20284;-78
2022/05/03 09:19:22;;;;;;;4.03;3.63;;;;;;;23.76;36.44;98613.88;7022349;28;20219;-78
2022/05/03 09:26:26;;;;;;;4.33;3.90;;;;;;;26.03;32.04;98618.94;7036476;28;20284;-78
2022/05/03 09:30:01;;;;;;;4.13;3.73;;;;;;;25.98;32.64;98592.25;7035334;28;20618;-80
2022/05/03 09:33:24;;;;;;;4.63;4.07;;;;;;;25.04;33.33;98570.06;7029386;28;20256;-76
2022/05/03 09:36:48;;;;;;;4.53;4.13;;;;;;;25.63;34.48;98594.88;7026646;28;20201;-79
2022/05/03 09:40:12;;;;;;;5.63;4.37;;;;;;;25.28;32.82;98601.94;7015953;28;20264;-77
2022/05/03 09:43:35;;;;;;;5.90;4.03;;;;;;;25.21;33.90;98593.22;7009418;28;20260;-78
2022/05/03 09:46:56;;;;;;;4.40;4.00;;;;;;;25.91;34.35;98602.06;7026151;28;20212;-82
2022/05/03 09:50:36;;;;;;;5.73;4.13;;;;;;;26.41;32.37;98600.91;7014684;28;20213;-77
2022/05/03 09:53:58;;;;;;;4.27;3.90;;;;;;;26.41;33.19;98596.22;7035728;28;20251;-79
2022/05/03 09:57:22;;;;;;;4.30;3.90;;;;;;;26.86;32.15;98570.25;7025218;28;20238;-80
2022/05/03 10:00:47;;;;;;;4.83;4.33;;;;;;;26.99;31.26;98591.47;7037185;28;20198;-79
2022/05/03 10:04:08;;;;;;;4.87;4.47;;;;;;;27.20;30.38;98578.75;7036527;28;20725;-79
2022/05/03 10:07:30;;;;;;;5.40;4.17;;;;;;;27.26;31.45;98579.44;7038792;28;20270;-80
2022/05/03 10:10:57;;;;;;;5.37;4.67;;;;;;;27.43;29.99;98544.31;7029822;28;20683;-80
2022/05/03 10:14:18;;;;;;;4.63;4.23;;;;;;;27.79;29.59;98571.84;7036549;28;20195;-79
2022/05/03 10:21:27;;;;;;;4.43;4.03;;;;;;;26.71;31.51;98567.84;7040751;28;20222;-79
2022/05/03 10:24:56;;;;;;;4.20;3.80;;;;;;;27.59;30.53;98562.16;7036166;28;20331;-78
2022/05/03 10:28:17;;;;;;;5.43;4.13;;;;;;;27.07;32.47;98546.41;7013797;28;20221;-78
2022/05/03 10:31:54;;;;;;;4.73;4.30;;;;;;;27.65;32.27;98555.31;7005642;28;20235;-77
2022/05/03 10:35:36;;;;;;;5.33;4.37;;;;;;;27.62;31.46;98549.59;7027982;28;20227;-77
2022/05/03 10:39:03;;;;;;;5.17;4.60;;;;;;;27.76;30.95;98547.50;7030860;28;20289;-79
2022/05/03 10:42:26;;;;;;;4.67;4.23;;;;;;;28.20;30.87;98533.44;7007605;28;20304;-78
2022/05/03 10:45:50;;;;;;;4.27;3.97;;;;;;;28.34;31.61;98531.31;7009134;28;20208;-80
2022/05/03 10:49:15;;;;;;;3.87;3.57;;;;;;;27.95;31.39;98531.47;7034893;28;20202;-79
2022/05/03 10:52:38;;;;;;;4.87;4.33;;;;;;;28.62;29.42;98514.03;7034922;28;20228;-79
2022/05/03 10:56:18;;;;;;;4.27;3.97;;;;;;;28.91;28.21;98511.34;7029187;28;20667;-79
2022/05/03 10:59:46;;;;;;;3.93;3.53;;;;;;;27.73;30.07;98532.34;7017237;28;20242;-80
2022/05/03 11:03:23;;;;;;;3.90;3.50;;;;;;;28.14;27.65;98529.19;7029444;28;20224;-79
2022/05/03 11:06:47;;;;;;;4.10;3.70;;;;;;;27.03;28.59;98511.41;7023107;28;20213;-79
2022/05/03 11:10:41;;;;;;;3.67;3.37;;;;;;;27.61;27.77;98534.94;7029640;28;20551;-79
2022/05/03 11:14:03;;;;;;;4.27;3.50;;;;;;;28.38;25.88;98508.16;7021103;28;20198;-78
2022/05/03 11:17:25;;;;;;;4.20;3.23;;;;;;;28.87;25.07;98507.59;7026296;28;20268;-78
2022/05/03 11:20:47;;;;;;;3.53;3.23;;;;;;;28.37;26.70;98486.31;7023534;28;20230;-79
2022/05/03 11:24:18;;;;;;;5.93;3.40;;;;;;;27.99;28.07;98501.94;7030161;28;20212;-78
2022/05/03 11:27:41;;;;;;;5.53;5.13;;;;;;;27.42;31.20;98509.47;7028351;28;20205;-77
2022/05/03 11:31:03;;;;;;;5.97;5.07;;;;;;;27.63;30.59;98510.50;7031758;28;20710;-77
2022/05/03 11:34:24;;;;;;;4.40;4.00;;;;;;;26.31;32.83;98504.41;7032630;28;20645;-77
2022/05/03 11:37:52;;;;;;;6.53;4.20;;;;;;;25.80;33.11;98507.53;7028244;28;20213;-77
2022/05/03 11:41:14;;;;;;;4.40;4.10;;;;;;;25.41;33.98;98498.16;7031314;28;20229;-77
2022/05/03 11:44:42;;;;;;;4.23;3.80;;;;;;;25.20;34.05;98496.91;7031404;28;20212;-79
2022/05/03 11:48:04;;;;;;;4.20;3.80;;;;;;;24.81;35.77;98483.59;7029587;28;20193;-78
2022/05/03 11:58:46;;;;;;;4.63;3.87;;;;;;;24.83;33.52;98499.84;7031063;28;20207;-78
2022/05/03 12:02:17;;;;;;;6.60;3.30;;;;;;;25.64;33.82;98508.16;7030887;28;20233;-79
2022/05/03 12:05:39;;;;;;;4.03;3.73;;;;;;;25.35;35.62;98511.25;7032713;28;20218;-79
2022/05/03 12:09:01;;;;;;;4.20;3.77;;;;;;;25.52;36.30;98500.41;7030855;28;20296;-78
2022/05/03 12:16:08;;;;;;;4.43;3.70;;;;;;;24.50;36.59;98509.25;7030545;28;20185;-78
2022/05/03 12:19:35;;;;;;;4.73;3.73;;;;;;;24.97;33.69;98508.97;7030440;28;20264;-78
2022/05/03 12:23:16;;;;;;;5.07;4.10;;;;;;;24.58;36.30;98508.56;7029521;28;20755;-78
2022/05/03 12:26:39;;;;;;;4.27;3.87;;;;;;;24.99;35.09;98502.00;7030180;28;20239;-78
2022/05/03 12:30:10;;;;;;;4.23;3.83;;;;;;;24.77;38.64;98495.56;7031273;28;20205;-78
2022/05/03 12:33:32;;;;;;;4.50;4.20;;;;;;;24.80;39.10;98504.03;7030151;28;20223;-77
2022/05/03 12:37:04;;;;;;;4.50;4.10;;;;;;;25.63;37.39;98504.59;7028703;28;20210;-77
2022/05/03 12:40:26;;;;;;;4.43;4.07;;;;;;;25.21;36.46;98502.13;7029606;28;20211;-77
2022/05/03 12:43:59;;;;;;;4.33;3.93;;;;;;;24.89;36.34;98501.41;7029711;28;20213;-77
2022/05/03 12:47:22;;;;;;;5.33;3.50;;;;;;;24.56;34.92;98508.84;7030576;28;20688;-76
2022/05/03 12:50:44;;;;;;;5.03;3.90;;;;;;;23.73;35.95;98538.19;7030711;28;20205;-77
2022/05/03 12:54:08;;;;;;;5.90;3.70;;;;;;;23.99;36.56;98546.97;7030360;28;20668;-77
2022/05/03 13:01:11;;;;;;;3.83;3.43;;;;;;;22.99;37.17;98548.16;7013384;28;20224;-77
2022/05/03 13:04:33;;;;;;;5.37;3.20;;;;;;;23.41;36.39;98546.34;7029580;28;20273;-77
2022/05/03 13:07:54;;;;;;;3.90;2.80;;;;;;;22.76;35.46;98474.72;7029178;28;20181;-77
2022/05/03 13:11:18;;;;;;;3.37;3.07;;;;;;;22.43;36.71;98550.63;7029376;28;20228;-78
2022/05/03 13:14:39;;;;;;;3.87;2.90;;;;;;;23.03;36.99;98555.56;7029264;28;20248;-77
2022/05/03 13:18:01;;;;;;;4.60;3.50;;;;;;;22.86;40.01;98557.09;7008635;28;20204;-78
2022/05/03 13:21:23;;;;;;;5.37;3.70;;;;;;;22.93;41.66;98563.06;7016907;28;20226;-77
2022/05/03 13:24:45;;;;;;;4.23;3.83;;;;;;;23.13;40.73;98557.38;7028702;28;20293;-77
2022/05/03 13:28:09;;;;;;;4.23;3.80;;;;;;;23.12;41.53;98553.81;7028414;28;20198;-78
2022/05/03 13:31:30;;;;;;;3.97;3.60;;;;;;;22.78;41.49;98522.81;7031567;28;20747;-77
2022/05/03 13:34:52;;;;;;;5.53;3.57;;;;;;;23.08;41.01;98554.69;7033221;28;20207;-77
2022/05/03 13:41:53;;;;;;;4.20;3.30;;;;;;;22.00;40.91;98551.47;7019261;28;20230;-78
2022/05/03 13:45:16;;;;;;;4.03;3.63;;;;;;;22.50;40.50;98545.63;7016726;28;21719;-78
2022/05/03 13:48:38;;;;;;;4.27;3.37;;;;;;;23.12;38.91;98540.06;7021244;28;20733;-78
2022/05/03 13:51:59;;;;;;;6.50;4.00;;;;;;;23.22;40.42;98539.16;7017564;28;20213;-78
2022/05/03 13:55:21;;;;;;;4.60;3.60;;;;;;;23.29;40.95;98548.69;7021855;28;20645;-78
2022/05/03 13:58:43;;;;;;;3.93;3.57;;;;;;;23.46;41.78;98548.22;7015454;28;20222;-78
2022/05/03 14:02:08;;;;;;;5.37;3.87;;;;;;;23.58;41.45;98541.19;7022362;28;20231;-78
2022/05/03 14:05:30;;;;;;;5.00;3.97;;;;;;;23.26;42.04;98530.00;7005101;28;20277;-78
2022/05/03 14:08:52;;;;;;;6.23;4.10;;;;;;;23.06;42.41;98519.22;7004815;28;20205;-77
2022/05/03 14:12:14;;;;;;;4.27;3.60;;;;;;;23.35;41.81;98525.50;7003735;28;20237;-78
2022/05/03 14:15:36;;;;;;;5.70;4.30;;;;;;;23.02;43.16;98509.91;7005591;28;20197;-78
2022/05/03 14:18:59;;;;;;;4.37;3.97;;;;;;;23.25;42.73;98506.38;7004950;28;20230;-78
2022/05/03 14:22:21;;;;;;;7.30;4.47;;;;;;;23.08;43.46;98502.44;7005142;28;20235;-78
2022/05/03 14:25:43;;;;;;;5.37;4.17;;;;;;;23.61;43.18;98521.31;7031170;28;20677;-78
2022/05/03 14:29:04;;;;;;;7.10;5.13;;;;;;;23.77;42.71;98508.16;7032845;28;20214;-78
2022/05/03 14:32:26;;;;;;;6.23;4.67;;;;;;;24.00;42.93;98510.88;7033452;28;20222;-78
2022/05/03 14:35:49;;;;;;;7.33;4.57;;;;;;;24.05;41.58;98497.03;7033526;28;20293;-78
2022/05/03 14:39:10;;;;;;;4.07;3.70;;;;;;;23.70;40.85;98496.69;7033134;28;20231;-79
2022/05/03 14:42:32;;;;;;;4.47;4.07;;;;;;;24.68;39.37;98498.19;7029305;28;20239;-78
2022/05/03 14:45:53;;;;;;;4.93;3.77;;;;;;;24.70;38.57;98497.88;7034061;28;20677;-78
2022/05/03 14:49:15;;;;;;;4.90;4.03;;;;;;;23.96;37.45;98467.69;7035026;28;20291;-78
2022/05/03 14:52:38;;;;;;;5.03;4.50;;;;;;;24.07;37.52;98474.69;7033466;28;20241;-77
2022/05/03 15:03:18;;;;;;;4.73;3.00;;;;;;;25.63;33.82;98485.25;7033833;28;20306;-79
2022/05/03 15:06:41;;;;;;;3.70;3.40;;;;;;;25.20;34.48;98475.63;7033373;28;20677;-79
2022/05/03 15:10:05;;;;;;;4.30;3.40;;;;;;;24.94;35.05;98469.00;7034060;28;20251;-79
2022/05/03 15:13:26;;;;;;;5.13;3.20;;;;;;;24.86;35.61;98466.97;7033102;28;20231;-79
2022/05/03 15:16:48;;;;;;;6.80;3.60;;;;;;;24.81;34.83;98477.25;7034192;28;20226;-79
2022/05/03 15:20:10;;;;;;;4.73;3.27;;;;;;;24.97;34.88;98467.56;7033975;28;20581;-79
2022/05/03 15:27:10;;;;;;;3.57;3.00;;;;;;;25.50;34.16;98463.19;7011258;28;20210;-79
2022/05/03 15:30:32;;;;;;;6.23;3.97;;;;;;;25.17;35.32;98465.22;7034649;28;20205;-79
2022/05/03 15:33:53;;;;;;;6.00;3.67;;;;;;;24.76;35.63;98452.53;7035642;28;20218;-79
2022/05/03 15:37:15;;;;;;;4.10;3.10;;;;;;;24.88;34.66;98466.63;7035082;28;20201;-79
2022/05/03 15:40:37;;;;;;;4.83;3.30;;;;;;;25.36;33.43;98456.88;7034827;28;20253;-79
2022/05/03 15:44:01;;;;;;;5.50;3.37;;;;;;;25.19;33.91;98460.22;7033459;28;20212;-79
2022/05/03 15:47:24;;;;;;;5.23;3.63;;;;;;;24.55;34.08;98452.06;7034697;28;20223;-78
2022/05/03 15:50:46;;;;;;;5.10;3.40;;;;;;;25.20;35.48;98448.03;7020745;28;21994;-79
2022/05/03 15:54:07;;;;;;;5.93;3.60;;;;;;;25.46;34.79;98453.88;7032269;28;20205;-79
2022/05/03 15:57:30;;;;;;;3.80;3.43;;;;;;;25.67;33.66;98453.09;7031683;28;20208;-79
2022/05/03 16:00:53;;;;;;;4.10;3.03;;;;;;;25.08;34.53;98453.25;7038751;28;20225;-79
2022/05/03 16:04:16;;;;;;;6.63;3.07;;;;;;;24.59;34.83;98433.84;7032262;28;20225;-79
2022/05/03 16:07:37;;;;;;;3.80;2.90;;;;;;;25.12;34.58;98453.50;7032623;28;20200;-78
2022/05/03 16:10:59;;;;;;;3.40;2.77;;;;;;;25.18;34.16;98449.50;7031761;28;20218;-79
2022/05/03 16:14:21;;;;;;;4.30;2.30;;;;;;;24.85;33.66;98442.44;7037485;28;20211;-78
2022/05/03 16:17:44;;;;;;;3.93;2.73;;;;;;;25.17;32.85;98445.91;7031427;28;20238;-79
2022/05/03 16:21:06;;;;;;;4.33;2.63;;;;;;;25.03;33.34;98453.38;7030972;28;20230;-79
2022/05/03 16:24:28;;;;;;;4.10;2.33;;;;;;;25.29;33.22;98450.94;7032175;28;20610;-79
2022/05/03 16:27:49;;;;;;;6.57;3.00;;;;;;;25.90;32.22;98441.00;7031566;28;20205;-79
2022/05/03 16:31:11;;;;;;;3.87;2.43;;;;;;;25.73;33.17;98451.06;7032332;28;20220;-79
2022/05/03 16:34:34;;;;;;;8.20;2.70;;;;;;;25.27;33.48;98444.91;7030809;28;20208;-79
2022/05/03 16:45:14;;;;;;;3.90;3.13;;;;;;;24.78;35.70;98450.31;7031766;28;20594;-79
2022/05/03 16:48:35;;;;;;;7.87;4.47;;;;;;;24.86;35.63;98452.34;7031319;28;20256;-79
2022/05/03 16:51:59;;;;;;;6.27;3.83;;;;;;;24.93;35.38;98403.09;7032003;28;20224;-79
2022/05/03 16:55:22;;;;;;;4.30;3.80;;;;;;;24.82;36.35;98454.91;7024737;28;20208;-79
2022/05/03 16:58:44;;;;;;;6.97;5.00;;;;;;;24.90;37.41;98453.38;7009848;28;20196;-79
2022/05/03 17:02:06;;;;;;;7.67;4.20;;;;;;;24.80;37.64;98459.09;7010008;28;20223;-79
2022/05/03 17:05:28;;;;;;;5.10;4.57;;;;;;;24.20;38.81;98443.63;7009852;28;20699;-79